createdAt,value
2023-03-17T00:01:41.736Z,2.65
2023-03-17T00:04:12.628Z,2.53
2023-03-17T00:06:40.733Z,2.60
2023-03-17T00:09:15.545Z,2.28
2023-03-17T00:11:43.398Z,2.63
2023-03-17T00:14:10.275Z,2.40
2023-03-17T00:16:39.747Z,2.30
2023-03-17T00:19:06.487Z,1.98
2023-03-17T00:21:34.315Z,2.83
2023-03-17T00:24:01.652Z,2.50
2023-03-17T00:26:28.692Z,2.53
2023-03-17T00:28:55.273Z,2.67
2023-03-17T00:31:27.679Z,2.80
2023-03-17T00:33:55.342Z,2.38
2023-03-17T00:36:24.912Z,2.67
2023-03-17T00:38:52.795Z,3.00
2023-03-17T00:41:20.173Z,2.40
2023-03-17T00:43:46.793Z,2.20
2023-03-17T00:46:16.667Z,2.47
2023-03-17T00:48:45.534Z,2.30
2023-03-17T00:51:12.747Z,2.45
2023-03-17T00:53:39.897Z,2.30
2023-03-17T00:56:13.510Z,2.40
2023-03-17T00:58:40.106Z,2.42
2023-03-17T01:01:07.168Z,2.15
2023-03-17T01:03:34.354Z,2.10
2023-03-17T01:06:02.786Z,2.45
2023-03-17T01:08:30.292Z,2.28
2023-03-17T01:10:57.596Z,2.05
2023-03-17T01:13:24.655Z,2.45
2023-03-17T01:15:52.506Z,2.38
2023-03-17T01:18:22.732Z,1.88
2023-03-17T01:20:50.240Z,2.50
2023-03-17T01:23:17.885Z,2.10
2023-03-17T01:25:45.310Z,2.70
2023-03-17T01:28:18.046Z,2.10
2023-03-17T01:30:46.965Z,2.70
2023-03-17T01:33:14.570Z,2.92
2023-03-17T01:35:43.616Z,2.53
2023-03-17T01:38:10.670Z,2.25
2023-03-17T01:40:57.432Z,2.22
2023-03-17T01:43:28.085Z,2.15
2023-03-17T01:46:29.351Z,2.00
2023-03-17T01:49:09.379Z,2.00
2023-03-17T01:51:44.092Z,2.35
2023-03-17T01:54:22.330Z,2.40
2023-03-17T01:56:51.737Z,2.40
2023-03-17T01:59:23.783Z,2.47
2023-03-17T02:01:54.666Z,2.28
2023-03-17T02:04:22.031Z,2.17
2023-03-17T02:06:58.115Z,1.90
2023-03-17T02:09:27.063Z,2.00
2023-03-17T02:11:54.552Z,2.33
2023-03-17T02:14:21.534Z,2.28
2023-03-17T02:16:48.601Z,2.40
2023-03-17T02:19:16.114Z,1.90
2023-03-17T02:21:45.184Z,2.55
2023-03-17T02:24:37.657Z,2.25
2023-03-17T02:27:13.581Z,2.10
2023-03-17T02:29:41.495Z,1.98
2023-03-17T02:32:28.192Z,2.40
2023-03-17T02:35:16.202Z,2.10
2023-03-17T02:38:02.641Z,1.90
2023-03-17T02:40:49.278Z,1.98
2023-03-17T02:43:36.021Z,2.17
2023-03-17T02:46:08.228Z,2.42
2023-03-17T02:48:36.581Z,2.13
2023-03-17T02:51:04.213Z,2.10
2023-03-17T02:53:31.144Z,2.28
2023-03-17T02:55:58.244Z,2.40
2023-03-17T02:58:24.748Z,2.00
2023-03-17T03:00:51.565Z,2.28
2023-03-17T03:03:18.023Z,1.98
2023-03-17T03:05:44.757Z,2.22
2023-03-17T03:08:11.562Z,2.17
2023-03-17T03:10:37.999Z,2.10
2023-03-17T03:13:04.571Z,2.10
2023-03-17T03:15:31.095Z,1.92
2023-03-17T03:17:57.876Z,2.95
2023-03-17T03:20:24.559Z,2.10
2023-03-17T03:22:50.998Z,2.17
2023-03-17T03:25:17.768Z,2.10
2023-03-17T03:27:44.552Z,2.65
2023-03-17T03:30:11.610Z,2.00
2023-03-17T03:32:38.075Z,2.25
2023-03-17T03:35:04.932Z,2.80
2023-03-17T03:37:31.595Z,3.00
2023-03-17T03:39:58.114Z,3.40
2023-03-17T03:42:24.737Z,3.40
2023-03-17T03:44:51.478Z,3.65
2023-03-17T03:47:17.892Z,3.33
2023-03-17T03:49:44.496Z,3.38
2023-03-17T03:52:11.394Z,3.70
2023-03-17T03:54:38.356Z,3.63
2023-03-17T03:57:05.814Z,3.60
2023-03-17T03:59:32.428Z,3.80
2023-03-17T04:01:59.322Z,3.50
2023-03-17T04:04:25.991Z,3.72
2023-03-17T04:06:52.613Z,3.83
2023-03-17T04:09:19.184Z,4.28
2023-03-17T04:11:45.974Z,3.67
2023-03-17T04:14:12.654Z,3.40
2023-03-17T04:16:42.178Z,3.75
2023-03-17T04:21:36.687Z,4.65
2023-03-17T04:24:05.214Z,3.75
2023-03-17T04:26:32.161Z,4.43
2023-03-17T04:28:58.985Z,4.40
2023-03-17T04:31:25.745Z,4.57
2023-03-17T04:33:52.676Z,4.80
2023-03-17T04:36:21.684Z,4.72
2023-03-17T04:38:48.128Z,4.18
2023-03-17T04:41:15.407Z,5.53
2023-03-17T04:43:42.006Z,5.40
2023-03-17T04:46:09.210Z,4.45
2023-03-17T04:48:35.991Z,4.05
2023-03-17T04:51:02.793Z,3.33
2023-03-17T04:53:34.244Z,2.63
2023-03-17T04:56:00.828Z,2.60
2023-03-17T04:58:31.021Z,2.72
2023-03-17T05:03:27.652Z,2.50
2023-03-17T05:05:55.560Z,2.20
2023-03-17T05:08:22.438Z,2.42
2023-03-17T05:10:48.889Z,2.78
2023-03-17T05:13:15.879Z,2.55
2023-03-17T05:15:49.412Z,2.17
2023-03-17T05:18:16.557Z,2.08
2023-03-17T05:20:43.060Z,2.85
2023-03-17T05:23:09.931Z,3.50
2023-03-17T05:25:36.796Z,4.35
2023-03-17T05:28:03.780Z,4.35
2023-03-17T05:30:30.521Z,5.35
2023-03-17T05:32:57.576Z,4.90
2023-03-17T05:35:24.085Z,5.05
2023-03-17T05:37:51.078Z,4.95
2023-03-17T05:40:17.833Z,4.93
2023-03-17T05:42:44.460Z,5.38
2023-03-17T05:45:11.651Z,5.35
2023-03-17T05:47:38.116Z,5.82
2023-03-17T05:50:05.834Z,5.72
2023-03-17T05:52:32.404Z,4.65
2023-03-17T05:54:59.113Z,5.80
2023-03-17T05:57:26.280Z,5.35
2023-03-17T05:59:52.750Z,5.30
2023-03-17T06:02:19.571Z,5.95
2023-03-17T06:04:46.446Z,6.07
2023-03-17T06:07:13.215Z,5.57
2023-03-17T06:09:40.133Z,5.72
2023-03-17T06:12:07.480Z,5.65
2023-03-17T06:14:34.245Z,4.88
2023-03-17T06:17:01.662Z,5.43
2023-03-17T06:19:28.272Z,6.30
2023-03-17T06:21:54.775Z,5.95
2023-03-17T06:24:21.709Z,5.55
2023-03-17T06:26:48.350Z,6.18
2023-03-17T06:29:15.724Z,5.82
2023-03-17T06:31:42.165Z,5.53
2023-03-17T06:34:08.603Z,5.93
2023-03-17T06:36:36.965Z,6.30
2023-03-17T06:39:05.065Z,6.65
2023-03-17T06:41:31.860Z,6.45
2023-03-17T06:43:58.405Z,5.93
2023-03-17T06:46:24.957Z,6.05
2023-03-17T06:48:51.445Z,6.18
2023-03-17T06:51:18.033Z,5.65
2023-03-17T06:53:44.676Z,6.47
2023-03-17T06:56:23.531Z,5.97
2023-03-17T06:58:55.578Z,6.00
2023-03-17T07:01:22.369Z,5.25
2023-03-17T07:03:49.862Z,5.90
2023-03-17T07:06:16.647Z,5.20
2023-03-17T07:08:43.244Z,5.25
2023-03-17T07:11:09.827Z,6.68
2023-03-17T07:13:38.684Z,5.80
2023-03-17T07:16:06.959Z,6.93
2023-03-17T07:18:34.239Z,7.85
2023-03-17T07:21:01.928Z,7.45
2023-03-17T07:23:29.397Z,6.90
2023-03-17T07:25:57.433Z,6.80
2023-03-17T07:28:24.372Z,6.82
2023-03-17T07:30:51.372Z,5.70
2023-03-17T07:33:21.142Z,5.50
2023-03-17T07:35:49.456Z,5.72
2023-03-17T07:38:17.873Z,5.88
2023-03-17T07:40:47.562Z,6.60
2023-03-17T07:43:14.852Z,6.82
2023-03-17T07:45:41.456Z,6.95
2023-03-17T07:48:08.575Z,6.05
2023-03-17T07:50:37.036Z,6.28
2023-03-17T07:53:04.585Z,5.72
2023-03-17T07:55:32.782Z,5.78
2023-03-17T07:57:59.926Z,5.38
2023-03-17T08:00:27.831Z,6.05
2023-03-17T08:03:08.877Z,5.30
2023-03-17T08:05:35.816Z,5.32
2023-03-17T08:08:02.421Z,5.97
2023-03-17T08:10:29.559Z,5.18
2023-03-17T08:12:56.443Z,5.05
2023-03-17T08:15:22.994Z,6.72
2023-03-17T08:17:49.597Z,5.60
2023-03-17T08:20:16.340Z,5.53
2023-03-17T08:22:43.990Z,5.60
2023-03-17T08:25:11.709Z,5.45
2023-03-17T08:27:38.563Z,5.60
2023-03-17T08:30:05.801Z,5.72
2023-03-17T08:32:32.979Z,5.13
2023-03-17T08:35:00.329Z,5.65
2023-03-17T08:37:26.932Z,5.43
2023-03-17T08:39:53.572Z,5.88
2023-03-17T08:42:20.190Z,5.18
2023-03-17T08:44:47.246Z,5.30
2023-03-17T08:47:13.682Z,5.65
2023-03-17T08:49:40.252Z,5.20
2023-03-17T08:52:06.887Z,5.13
2023-03-17T08:54:35.001Z,6.00
2023-03-17T08:57:01.770Z,4.88
2023-03-17T08:59:28.694Z,5.05
2023-03-17T09:01:55.813Z,5.25
2023-03-17T09:04:23.326Z,5.55
2023-03-17T09:07:02.713Z,5.47
2023-03-17T09:09:31.070Z,4.45
2023-03-17T09:11:57.743Z,4.68
2023-03-17T09:14:24.674Z,5.50
2023-03-17T09:16:51.342Z,5.07
2023-03-17T09:19:17.888Z,5.47
2023-03-17T09:21:44.865Z,4.63
2023-03-17T09:24:11.704Z,4.68
2023-03-17T09:26:38.280Z,4.50
2023-03-17T09:29:05.270Z,4.18
2023-03-17T09:31:32.923Z,4.40
2023-03-17T09:33:59.960Z,5.25
2023-03-17T09:36:26.460Z,4.65
2023-03-17T09:38:53.028Z,5.07
2023-03-17T09:41:25.799Z,5.22
2023-03-17T09:43:58.386Z,5.38
2023-03-17T09:47:08.422Z,5.35
2023-03-17T09:49:45.963Z,6.85
2023-03-17T09:52:18.821Z,6.82
2023-03-17T09:54:46.620Z,5.72
2023-03-17T09:57:30.124Z,4.82
2023-03-17T10:00:11.544Z,4.40
2023-03-17T10:02:38.152Z,4.13
2023-03-17T10:05:17.096Z,5.20
2023-03-17T10:07:54.399Z,4.70
2023-03-17T10:10:56.920Z,4.15
2023-03-17T10:13:38.990Z,4.45
2023-03-17T10:16:19.360Z,4.70
2023-03-17T10:18:58.465Z,4.90
2023-03-17T10:21:37.529Z,4.57
2023-03-17T10:24:05.164Z,5.13
2023-03-17T10:26:39.752Z,4.72
2023-03-17T10:29:13.751Z,4.50
2023-03-17T10:31:40.624Z,4.82
2023-03-17T10:34:29.278Z,5.00
2023-03-17T10:37:12.830Z,4.47
2023-03-17T10:39:48.251Z,4.63
2023-03-17T10:42:29.545Z,4.65
2023-03-17T10:44:58.432Z,4.53
2023-03-17T10:47:34.685Z,4.40
2023-03-17T10:50:28.862Z,5.03
2023-03-17T10:53:18.283Z,4.47
2023-03-17T10:55:50.600Z,4.20
2023-03-17T10:58:20.253Z,4.70
2023-03-17T11:01:03.680Z,4.60
2023-03-17T11:03:35.956Z,4.32
2023-03-17T11:06:12.247Z,4.05
2023-03-17T11:08:56.802Z,3.65
2023-03-17T11:11:26.299Z,3.47
2023-03-17T11:14:03.362Z,3.70
2023-03-17T11:16:32.900Z,4.25
2023-03-17T11:19:02.269Z,4.22
2023-03-17T11:21:33.889Z,4.78
2023-03-17T11:24:09.406Z,4.05
2023-03-17T11:26:47.405Z,3.67
2023-03-17T11:29:20.689Z,4.65
2023-03-17T11:32:13.736Z,4.63
2023-03-17T11:34:58.920Z,4.35
2023-03-17T11:38:03.563Z,4.50
2023-03-17T11:40:35.262Z,4.40
2023-03-17T11:43:08.054Z,5.20
2023-03-17T11:45:50.474Z,4.30
2023-03-17T11:48:30.306Z,4.65
2023-03-17T11:51:06.665Z,5.10
2023-03-17T11:53:59.588Z,4.65
2023-03-17T11:56:40.792Z,4.65
2023-03-17T11:59:18.476Z,4.80
2023-03-17T12:02:08.082Z,4.35
2023-03-17T12:04:43.546Z,5.40
2023-03-17T12:07:33.076Z,4.60
2023-03-17T12:10:22.858Z,3.80
2023-03-17T12:12:57.952Z,4.45
2023-03-17T12:15:39.331Z,3.90
2023-03-17T12:18:13.141Z,4.35
2023-03-17T12:21:15.825Z,4.32
2023-03-17T12:24:01.750Z,4.82
2023-03-17T12:26:37.173Z,4.50
2023-03-17T12:29:24.906Z,4.55
2023-03-17T12:32:12.650Z,4.55
2023-03-17T12:34:51.715Z,4.45
2023-03-17T12:37:19.465Z,4.60
2023-03-17T12:39:55.562Z,4.55
2023-03-17T12:42:35.583Z,4.32
2023-03-17T12:45:26.246Z,4.35
2023-03-17T12:48:16.780Z,4.05
2023-03-17T12:50:46.380Z,4.00
2023-03-17T12:53:29.505Z,3.67
2023-03-17T12:56:02.404Z,3.90
2023-03-17T12:58:43.816Z,3.67
2023-03-17T13:01:25.390Z,4.05
2023-03-17T13:04:07.264Z,3.88
2023-03-17T13:06:42.551Z,3.55
2023-03-17T13:09:34.038Z,3.53
2023-03-17T13:12:02.170Z,3.50
2023-03-17T13:14:43.106Z,3.97
2023-03-17T13:17:16.597Z,4.50
2023-03-17T13:19:56.837Z,4.65
2023-03-17T13:22:32.568Z,4.28
2023-03-17T13:25:12.644Z,4.22
2023-03-17T13:27:39.086Z,4.05
2023-03-17T13:30:25.731Z,3.60
2023-03-17T13:33:25.735Z,4.63
2023-03-17T13:36:14.293Z,4.38
2023-03-17T13:39:18.614Z,3.58
2023-03-17T13:42:15.692Z,3.63
2023-03-17T13:45:01.080Z,3.72
2023-03-17T13:47:40.124Z,4.03
2023-03-17T13:50:22.269Z,3.20
2023-03-17T13:52:54.653Z,4.05
2023-03-17T13:55:24.120Z,3.70
2023-03-17T13:57:57.290Z,3.60
2023-03-17T14:00:28.866Z,3.92
2023-03-17T14:03:03.744Z,3.78
2023-03-17T14:05:37.923Z,4.18
2023-03-17T14:08:23.557Z,3.45
2023-03-17T14:10:55.739Z,3.80
2023-03-17T14:13:25.566Z,3.35
2023-03-17T14:16:14.059Z,3.60
2023-03-17T14:18:47.421Z,3.58
2023-03-17T14:21:23.963Z,2.78
2023-03-17T14:23:58.803Z,3.65
2023-03-17T14:26:29.014Z,3.67
2023-03-17T14:28:59.156Z,3.15
2023-03-17T14:31:28.110Z,3.55
2023-03-17T14:33:56.958Z,3.47
2023-03-17T14:36:24.971Z,3.20
2023-03-17T14:38:53.721Z,3.17
2023-03-17T14:41:25.961Z,3.30
2023-03-17T14:43:56.898Z,2.92
2023-03-17T14:46:23.660Z,3.35
2023-03-17T14:48:56.912Z,3.00
2023-03-17T14:51:28.492Z,3.10
2023-03-17T14:54:00.113Z,3.08
2023-03-17T14:56:35.516Z,3.30
2023-03-17T14:59:08.094Z,3.63
2023-03-17T15:01:42.864Z,3.30
2023-03-17T15:04:17.736Z,3.70
2023-03-17T15:06:53.614Z,3.05
2023-03-17T15:09:34.970Z,3.55
2023-03-17T15:12:07.091Z,3.45
2023-03-17T15:14:38.629Z,3.15
2023-03-17T15:17:15.792Z,2.88
2023-03-17T15:19:48.004Z,3.28
2023-03-17T15:22:31.858Z,3.20
2023-03-17T15:25:02.303Z,3.00
2023-03-17T15:27:31.263Z,3.58
2023-03-17T15:29:58.137Z,3.50
2023-03-17T15:32:27.361Z,3.53
2023-03-17T15:34:56.866Z,3.70
2023-03-17T15:37:32.148Z,3.70
2023-03-17T15:40:00.170Z,3.47
2023-03-17T15:42:32.924Z,3.30
2023-03-17T15:45:03.528Z,3.85
2023-03-17T15:47:33.803Z,3.10
2023-03-17T15:50:12.046Z,3.13
2023-03-17T15:52:38.564Z,3.10
2023-03-17T15:55:18.362Z,3.25
2023-03-17T15:57:53.916Z,3.20
2023-03-17T16:00:23.711Z,2.97
2023-03-17T16:02:56.140Z,4.00
2023-03-17T16:05:29.250Z,4.20
2023-03-17T16:07:56.232Z,5.00
2023-03-17T16:10:28.645Z,3.38
2023-03-17T16:12:55.428Z,3.17
2023-03-17T16:15:31.659Z,3.50
2023-03-17T16:18:00.434Z,4.25
2023-03-17T16:20:32.616Z,4.05
2023-03-17T16:23:06.929Z,3.90
2023-03-17T16:25:34.213Z,3.42
2023-03-17T16:28:05.070Z,3.70
2023-03-17T16:30:34.438Z,3.85
2023-03-17T16:33:03.598Z,3.50
2023-03-17T16:35:30.333Z,3.05
2023-03-17T16:37:56.963Z,3.03
2023-03-17T16:40:33.050Z,3.88
2023-03-17T16:42:59.542Z,3.75
2023-03-17T16:45:28.020Z,3.22
2023-03-17T16:47:55.957Z,3.80
2023-03-17T16:50:24.976Z,3.72
2023-03-17T16:52:51.915Z,3.83
2023-03-17T16:55:20.798Z,3.60
2023-03-17T16:57:50.393Z,3.88
2023-03-17T17:00:27.113Z,4.03
2023-03-17T17:02:54.254Z,3.70
2023-03-17T17:05:29.778Z,3.80
2023-03-17T17:07:57.308Z,4.45
2023-03-17T17:10:26.336Z,4.20
2023-03-17T17:12:53.543Z,4.32
2023-03-17T17:15:21.844Z,4.22
2023-03-17T17:17:57.214Z,3.70
2023-03-17T17:20:31.111Z,4.65
2023-03-17T17:22:59.713Z,4.60
2023-03-17T17:25:27.142Z,4.13
2023-03-17T17:27:54.920Z,3.83
2023-03-17T17:30:28.166Z,3.63
2023-03-17T17:32:57.596Z,3.35
2023-03-17T17:35:26.092Z,3.87
2023-03-17T17:37:53.714Z,3.60
2023-03-17T17:40:24.369Z,3.08
2023-03-17T17:42:52.121Z,3.67
2023-03-17T17:45:20.124Z,3.42
2023-03-17T17:47:47.183Z,3.25
2023-03-17T17:50:21.063Z,2.92
2023-03-17T17:52:48.017Z,3.33
2023-03-17T17:55:15.181Z,3.28
2023-03-17T17:57:41.981Z,3.17
2023-03-17T18:00:12.676Z,2.78
2023-03-17T18:02:39.216Z,3.33
2023-03-17T18:05:08.085Z,3.38
2023-03-17T18:07:35.717Z,3.65
2023-03-17T18:10:02.846Z,3.40
2023-03-17T18:12:29.428Z,3.53
2023-03-17T18:14:56.080Z,3.97
2023-03-17T18:17:22.950Z,3.38
2023-03-17T18:19:50.449Z,3.92
2023-03-17T18:22:17.192Z,3.80
2023-03-17T18:24:44.089Z,3.65
2023-03-17T18:27:11.735Z,4.60
2023-03-17T18:29:38.874Z,3.70
2023-03-17T18:32:06.937Z,3.42
2023-03-17T18:34:43.268Z,3.75
2023-03-17T18:37:15.187Z,3.80
2023-03-17T18:39:42.494Z,4.65
2023-03-17T18:42:09.702Z,4.53
2023-03-17T18:44:36.815Z,4.90
2023-03-17T18:47:04.140Z,5.25
2023-03-17T18:49:30.858Z,5.22
2023-03-17T18:51:59.379Z,4.88
2023-03-17T18:54:27.715Z,5.13
2023-03-17T18:56:54.895Z,5.82
2023-03-17T18:59:21.538Z,5.40
2023-03-17T19:01:48.009Z,4.55
2023-03-17T19:04:14.592Z,5.00
2023-03-17T19:06:42.555Z,4.95
2023-03-17T19:09:10.504Z,4.85
2023-03-17T19:11:39.198Z,4.22
2023-03-17T19:14:07.457Z,4.63
2023-03-17T19:16:35.114Z,4.30
2023-03-17T19:19:02.567Z,4.20
2023-03-17T19:21:29.097Z,4.05
2023-03-17T19:23:58.983Z,3.42
2023-03-17T19:26:25.511Z,3.70
2023-03-17T19:28:52.188Z,4.05
2023-03-17T19:31:18.842Z,4.82
2023-03-17T19:33:45.536Z,5.30
2023-03-17T19:36:13.007Z,4.63
2023-03-17T19:38:40.994Z,4.00
2023-03-17T19:41:07.970Z,4.53
2023-03-17T19:43:40.710Z,4.45
2023-03-17T19:46:09.255Z,4.10
2023-03-17T19:48:36.643Z,4.25
2023-03-17T19:51:03.386Z,4.07
2023-03-17T19:53:29.924Z,4.13
2023-03-17T19:55:56.879Z,4.25
2023-03-17T19:58:23.734Z,4.75
2023-03-17T20:00:50.568Z,4.97
2023-03-17T20:03:17.191Z,4.60
2023-03-17T20:05:45.721Z,4.20
2023-03-17T20:08:12.295Z,4.53
2023-03-17T20:10:39.200Z,4.43
2023-03-17T20:13:06.356Z,4.18
2023-03-17T20:15:33.598Z,3.97
2023-03-17T20:18:00.705Z,4.38
2023-03-17T20:20:27.448Z,4.82
2023-03-17T20:22:54.190Z,4.60
2023-03-17T20:25:21.683Z,4.63
2023-03-17T20:27:48.412Z,4.95
2023-03-17T20:30:15.276Z,4.78
2023-03-17T20:32:41.768Z,4.40
2023-03-17T20:35:11.724Z,5.00
2023-03-17T20:37:38.733Z,4.63
2023-03-17T20:40:08.159Z,4.60
2023-03-17T20:42:34.622Z,4.80
2023-03-17T20:45:03.317Z,4.80
2023-03-17T20:47:29.815Z,4.20
2023-03-17T20:49:58.596Z,4.80
2023-03-17T20:52:30.285Z,3.90
2023-03-17T20:54:59.349Z,4.47
2023-03-17T20:57:26.237Z,4.13
2023-03-17T20:59:52.858Z,4.10
2023-03-17T21:02:19.520Z,3.72
2023-03-17T21:04:48.583Z,3.70
2023-03-17T21:07:17.092Z,4.18
2023-03-17T21:09:44.161Z,5.03
2023-03-17T21:12:16.200Z,4.30
2023-03-17T21:14:43.035Z,4.40
2023-03-17T21:17:10.786Z,4.57
2023-03-17T21:19:38.165Z,4.40
2023-03-17T21:22:05.627Z,3.80
2023-03-17T21:24:35.007Z,4.82
2023-03-17T21:27:05.046Z,4.60
2023-03-17T21:29:33.190Z,4.03
2023-03-17T21:32:00.978Z,3.63
2023-03-17T21:34:29.873Z,3.17
2023-03-17T21:36:57.171Z,3.50
2023-03-17T21:39:24.845Z,3.20
2023-03-17T21:41:51.753Z,3.40
2023-03-17T21:44:19.251Z,2.80
2023-03-17T21:46:47.856Z,3.58
2023-03-17T21:49:16.304Z,3.55
2023-03-17T21:51:44.328Z,3.65
2023-03-17T21:54:10.958Z,4.10
2023-03-17T21:56:38.966Z,3.72
2023-03-17T21:59:10.958Z,3.78
2023-03-17T22:01:38.932Z,3.75
2023-03-17T22:04:05.636Z,3.90
2023-03-17T22:06:32.352Z,3.70
2023-03-17T22:08:58.796Z,3.63
2023-03-17T22:11:25.663Z,3.30
2023-03-17T22:13:52.274Z,3.28
2023-03-17T22:16:19.661Z,3.58
2023-03-17T22:18:47.475Z,3.30
2023-03-17T22:21:14.660Z,3.03
2023-03-17T22:23:42.320Z,3.05
2023-03-17T22:26:12.337Z,3.10
2023-03-17T22:28:39.374Z,2.80
2023-03-17T22:31:14.691Z,3.22
2023-03-17T22:33:41.903Z,3.67
2023-03-17T22:36:09.354Z,3.30
2023-03-17T22:38:36.301Z,3.33
2023-03-17T22:41:06.410Z,4.05
2023-03-17T22:43:33.024Z,3.70
2023-03-17T22:45:59.650Z,3.88
2023-03-17T22:48:26.664Z,3.88
2023-03-17T22:50:53.281Z,3.85
2023-03-17T22:53:19.815Z,4.10
2023-03-17T22:55:46.604Z,3.50
2023-03-17T22:58:13.158Z,4.07
2023-03-17T23:00:40.455Z,3.72
2023-03-17T23:03:07.186Z,4.78
2023-03-17T23:05:33.884Z,4.30
2023-03-17T23:08:00.565Z,4.15
2023-03-17T23:10:28.543Z,4.15
2023-03-17T23:12:55.399Z,4.00
2023-03-17T23:15:22.354Z,4.47
2023-03-17T23:17:48.935Z,5.20
2023-03-17T23:20:15.818Z,4.60
2023-03-17T23:22:42.454Z,4.50
2023-03-17T23:25:09.924Z,4.78
2023-03-17T23:27:36.646Z,4.00
2023-03-17T23:30:04.312Z,4.00
2023-03-17T23:32:31.901Z,4.63
2023-03-17T23:34:58.493Z,4.72
2023-03-17T23:37:25.100Z,3.58
2023-03-17T23:39:51.598Z,3.90
2023-03-17T23:42:18.255Z,4.50
2023-03-17T23:44:45.031Z,4.55
2023-03-17T23:47:11.910Z,3.92
2023-03-17T23:49:39.052Z,3.50
2023-03-17T23:52:05.785Z,3.55
2023-03-17T23:54:32.951Z,4.00
2023-03-17T23:57:00.111Z,4.13
2023-03-17T23:59:26.882Z,4.53
